createdAt,value
2022-10-12T00:01:13.283Z,39.35
2022-10-12T00:03:41.678Z,30.40
2022-10-12T00:06:15.441Z,31.98
2022-10-12T00:08:45.553Z,32.13
2022-10-12T00:11:16.992Z,35.50
2022-10-12T00:13:45.276Z,32.95
2022-10-12T00:16:15.179Z,26.70
2022-10-12T00:18:42.960Z,17.20
2022-10-12T00:21:12.847Z,29.60
2022-10-12T00:23:41.764Z,22.90
2022-10-12T00:26:13.209Z,24.52
2022-10-12T00:28:41.506Z,27.23
2022-10-12T00:31:12.105Z,26.33
2022-10-12T00:33:40.323Z,24.10
2022-10-12T00:36:23.089Z,22.55
2022-10-12T00:38:52.671Z,24.20
2022-10-12T00:41:23.247Z,23.35
2022-10-12T00:43:58.289Z,26.08
2022-10-12T00:46:31.188Z,31.38
2022-10-12T00:49:18.463Z,23.67
2022-10-12T00:51:56.751Z,27.85
2022-10-12T00:54:30.421Z,30.42
2022-10-12T00:56:59.682Z,22.23
2022-10-12T00:59:54.992Z,23.92
2022-10-12T01:02:26.356Z,22.73
2022-10-12T01:04:54.980Z,30.05
2022-10-12T01:07:23.172Z,25.15
2022-10-12T01:09:51.224Z,24.77
2022-10-12T01:12:20.352Z,23.08
2022-10-12T01:14:48.224Z,21.13
2022-10-12T01:17:34.152Z,24.40
2022-10-12T01:20:26.545Z,24.73
2022-10-12T01:23:52.115Z,20.17
2022-10-12T01:26:44.557Z,26.42
2022-10-12T01:29:15.610Z,26.67
2022-10-12T01:31:57.356Z,29.15
2022-10-12T01:34:45.768Z,23.40
2022-10-12T01:37:26.273Z,25.50
2022-10-12T01:39:57.376Z,28.67
2022-10-12T01:42:29.263Z,23.90
2022-10-12T01:45:05.754Z,22.58
2022-10-12T01:47:35.648Z,22.10
2022-10-12T01:50:06.850Z,26.65
2022-10-12T01:53:15.470Z,23.05
2022-10-12T01:55:57.561Z,26.10
2022-10-12T01:58:36.954Z,24.40
2022-10-12T02:01:21.966Z,21.20
2022-10-12T02:04:18.953Z,25.67
2022-10-12T02:06:52.352Z,28.10
2022-10-12T02:09:20.330Z,32.45
2022-10-12T02:11:52.677Z,27.92
2022-10-12T02:14:23.798Z,24.33
2022-10-12T02:16:59.222Z,30.02
2022-10-12T02:19:30.943Z,28.25
2022-10-12T02:22:05.016Z,29.77
2022-10-12T02:24:36.283Z,27.10
2022-10-12T02:27:05.113Z,23.65
2022-10-12T02:29:42.247Z,22.88
2022-10-12T02:32:27.989Z,31.92
2022-10-12T02:35:07.852Z,23.92
2022-10-12T02:37:38.563Z,24.43
2022-10-12T02:40:43.551Z,30.15
2022-10-12T02:43:45.323Z,27.50
2022-10-12T02:46:14.951Z,25.08
2022-10-12T02:48:45.184Z,33.42
2022-10-12T02:51:13.533Z,45.78
2022-10-12T02:53:41.412Z,59.03
2022-10-12T02:56:15.716Z,60.42
2022-10-12T02:58:45.240Z,69.82
2022-10-12T03:01:17.146Z,71.20
2022-10-12T03:03:45.859Z,90.32
2022-10-12T03:06:14.405Z,91.47
2022-10-12T03:08:42.265Z,72.88
2022-10-12T03:11:13.026Z,72.78
2022-10-12T03:13:41.168Z,62.17
2022-10-12T03:16:11.487Z,49.33
2022-10-12T03:18:40.103Z,49.60
2022-10-12T03:21:08.253Z,36.17
2022-10-12T03:23:36.132Z,35.80
2022-10-12T03:26:04.691Z,29.77
2022-10-12T03:28:33.536Z,35.22
2022-10-12T03:31:01.514Z,34.88
2022-10-12T03:33:29.461Z,36.70
2022-10-12T03:35:57.647Z,38.97
2022-10-12T03:38:25.397Z,49.60
2022-10-12T03:40:53.481Z,48.53
2022-10-12T03:43:21.424Z,43.63
2022-10-12T03:45:49.883Z,35.50
2022-10-12T03:48:17.834Z,36.10
2022-10-12T03:50:50.437Z,36.63
2022-10-12T03:53:19.301Z,40.70
2022-10-12T03:55:47.560Z,36.97
2022-10-12T03:58:15.885Z,44.22
2022-10-12T04:00:44.068Z,43.88
2022-10-12T04:03:11.919Z,42.58
2022-10-12T04:05:40.271Z,42.08
2022-10-12T04:08:08.352Z,41.08
2022-10-12T04:10:36.126Z,40.15
2022-10-12T04:13:04.058Z,39.58
2022-10-12T04:15:32.388Z,41.28
2022-10-12T04:18:00.270Z,37.83
2022-10-12T04:20:28.447Z,35.85
2022-10-12T04:22:56.941Z,38.78
2022-10-12T04:25:29.272Z,42.90
2022-10-12T04:27:58.600Z,39.42
2022-10-12T04:30:26.538Z,45.67
2022-10-12T04:32:54.468Z,31.90
2022-10-12T04:35:22.500Z,36.97
2022-10-12T04:37:50.414Z,41.05
2022-10-12T04:40:18.414Z,35.85
2022-10-12T04:42:46.184Z,36.63
2022-10-12T04:45:14.374Z,39.05
2022-10-12T04:47:42.150Z,39.90
2022-10-12T04:50:10.334Z,32.20
2022-10-12T04:52:38.111Z,31.70
2022-10-12T04:55:06.958Z,37.20
2022-10-12T04:57:34.775Z,33.90
2022-10-12T05:00:03.564Z,38.42
2022-10-12T05:02:31.350Z,34.40
2022-10-12T05:04:59.205Z,35.70
2022-10-12T05:07:27.380Z,35.47
2022-10-12T05:09:55.435Z,33.90
2022-10-12T05:12:23.870Z,40.42
2022-10-12T05:14:51.679Z,37.80
2022-10-12T05:17:19.807Z,44.63
2022-10-12T05:19:47.732Z,60.25
2022-10-12T05:22:15.906Z,59.25
2022-10-12T05:24:43.677Z,107.07
2022-10-12T05:27:11.840Z,177.43
2022-10-12T05:29:39.620Z,211.45
2022-10-12T05:32:07.648Z,168.13
2022-10-12T05:34:35.389Z,140.13
2022-10-12T05:37:03.383Z,115.97
2022-10-12T05:39:31.128Z,80.20
2022-10-12T05:41:59.186Z,59.65
2022-10-12T05:44:26.922Z,62.38
2022-10-12T05:46:57.396Z,73.57
2022-10-12T05:49:25.257Z,107.13
2022-10-12T05:51:53.539Z,104.30
2022-10-12T05:54:21.253Z,103.78
2022-10-12T05:56:49.259Z,111.05
2022-10-12T05:59:17.131Z,98.68
2022-10-12T06:01:45.301Z,97.70
2022-10-12T06:04:13.306Z,115.43
2022-10-12T06:06:41.618Z,105.63
2022-10-12T06:09:09.527Z,101.45
2022-10-12T06:11:37.654Z,94.93
2022-10-12T06:14:05.609Z,90.97
2022-10-12T06:16:34.199Z,77.72
2022-10-12T06:19:01.992Z,60.85
2022-10-12T06:21:34.525Z,59.45
2022-10-12T06:24:03.517Z,54.53
2022-10-12T06:26:31.747Z,66.15
2022-10-12T06:29:01.034Z,90.65
2022-10-12T06:31:29.658Z,107.22
2022-10-12T06:33:59.963Z,97.55
2022-10-12T06:36:28.093Z,106.53
2022-10-12T06:38:56.317Z,147.05
2022-10-12T06:41:24.363Z,155.85
2022-10-12T06:43:52.188Z,175.52
2022-10-12T06:46:20.368Z,114.35
2022-10-12T06:48:48.183Z,79.07
2022-10-12T06:51:19.130Z,65.25
2022-10-12T06:53:46.850Z,81.70
2022-10-12T06:56:17.472Z,80.63
2022-10-12T06:58:45.265Z,75.45
2022-10-12T07:01:13.493Z,70.88
2022-10-12T07:03:41.369Z,61.83
2022-10-12T07:06:15.258Z,58.65
2022-10-12T07:08:43.458Z,46.35
2022-10-12T07:11:13.558Z,45.08
2022-10-12T07:13:41.354Z,52.50
2022-10-12T07:16:09.497Z,47.17
2022-10-12T07:18:37.487Z,47.90
2022-10-12T07:21:05.667Z,45.17
2022-10-12T07:23:35.187Z,36.03
2022-10-12T07:26:07.921Z,37.33
2022-10-12T07:28:36.939Z,44.97
2022-10-12T07:31:07.488Z,33.22
2022-10-12T07:33:36.337Z,40.10
2022-10-12T07:36:21.945Z,70.35
2022-10-12T07:38:50.382Z,154.68
2022-10-12T07:41:18.614Z,72.82
2022-10-12T07:43:46.528Z,36.42
2022-10-12T07:46:14.804Z,34.08
2022-10-12T07:48:47.490Z,35.42
2022-10-12T07:51:18.489Z,29.92
2022-10-12T07:53:46.193Z,27.70
2022-10-12T07:56:15.704Z,24.40
2022-10-12T07:58:55.321Z,30.38
2022-10-12T08:01:28.403Z,28.40
2022-10-12T08:04:01.226Z,25.92
2022-10-12T08:06:32.457Z,25.23
2022-10-12T08:09:01.535Z,23.65
2022-10-12T08:11:30.531Z,28.77
2022-10-12T08:13:58.559Z,26.08
2022-10-12T08:16:26.626Z,22.75
2022-10-12T08:18:54.406Z,37.25
2022-10-12T08:21:22.656Z,34.55
2022-10-12T08:23:50.679Z,31.42
2022-10-12T08:26:18.776Z,56.97
2022-10-12T08:28:46.579Z,39.35
2022-10-12T08:31:17.042Z,36.53
2022-10-12T08:33:45.361Z,35.17
2022-10-12T08:36:14.029Z,30.02
2022-10-12T08:38:43.851Z,30.27
2022-10-12T08:41:33.854Z,41.10
2022-10-12T08:44:49.605Z,121.75
2022-10-12T08:47:32.386Z,44.75
2022-10-12T08:50:02.755Z,30.83
2022-10-12T08:52:55.734Z,43.65
2022-10-12T08:55:35.945Z,53.42
2022-10-12T08:58:04.292Z,37.70
2022-10-12T09:00:35.139Z,46.20
2022-10-12T09:03:03.245Z,47.75
2022-10-12T09:05:46.661Z,36.05
2022-10-12T09:08:32.167Z,25.35
2022-10-12T09:11:31.603Z,31.48
2022-10-12T09:14:11.418Z,32.58
2022-10-12T09:16:44.673Z,30.00
2022-10-12T09:19:20.996Z,35.88
2022-10-12T09:21:50.515Z,41.10
2022-10-12T09:24:39.530Z,72.72
2022-10-12T09:27:19.632Z,24.88
2022-10-12T09:30:01.251Z,46.53
2022-10-12T09:32:32.192Z,72.63
2022-10-12T09:35:00.823Z,85.43
2022-10-12T09:37:31.838Z,84.90
2022-10-12T09:40:02.867Z,168.27
2022-10-12T09:42:31.737Z,111.88
2022-10-12T09:45:02.273Z,51.90
2022-10-12T09:47:32.464Z,45.55
2022-10-12T09:50:02.815Z,47.03
2022-10-12T09:52:35.415Z,39.37
2022-10-12T09:55:08.244Z,29.00
2022-10-12T09:57:39.696Z,38.33
2022-10-12T10:00:25.688Z,19.77
2022-10-12T10:02:54.792Z,19.38
2022-10-12T10:05:37.419Z,29.50
2022-10-12T10:08:21.872Z,47.75
2022-10-12T10:10:59.042Z,19.92
2022-10-12T10:13:37.032Z,48.20
2022-10-12T10:16:11.459Z,29.75
2022-10-12T10:18:50.208Z,40.28
2022-10-12T10:21:29.328Z,67.45
2022-10-12T10:23:58.322Z,191.30
2022-10-12T10:26:27.928Z,181.80
2022-10-12T10:29:17.698Z,71.18
2022-10-12T10:31:48.245Z,121.97
2022-10-12T10:34:19.001Z,111.57
2022-10-12T10:36:54.171Z,70.68
2022-10-12T10:39:29.200Z,24.20
2022-10-12T10:42:12.365Z,18.88
2022-10-12T10:47:31.445Z,10.25
2022-10-12T10:50:01.661Z,11.73
2022-10-12T10:52:34.535Z,12.95
2022-10-12T10:55:11.659Z,13.13
2022-10-12T10:57:44.749Z,16.02
2022-10-12T11:00:37.947Z,10.75
2022-10-12T11:03:34.451Z,11.95
2022-10-12T11:06:20.294Z,14.73
2022-10-12T11:08:54.423Z,10.05
2022-10-12T11:11:27.163Z,11.52
2022-10-12T11:14:04.317Z,14.88
2022-10-12T11:16:40.190Z,12.52
2022-10-12T11:19:42.503Z,15.43
2022-10-12T11:22:20.377Z,12.35
2022-10-12T11:25:01.660Z,12.13
2022-10-12T11:30:14.635Z,7.47
2022-10-12T11:32:47.554Z,10.65
2022-10-12T11:35:20.734Z,16.45
2022-10-12T11:37:54.274Z,10.95
2022-10-12T11:41:00.272Z,13.77
2022-10-12T11:43:25.774Z,12.55
2022-10-12T11:45:57.445Z,9.15
2022-10-12T11:48:41.454Z,9.50
2022-10-12T11:51:10.958Z,8.65
2022-10-12T11:53:46.844Z,8.55
2022-10-12T11:56:25.982Z,11.73
2022-10-12T11:59:09.680Z,11.73
2022-10-12T12:01:49.830Z,12.30
2022-10-12T12:04:41.160Z,10.55
2022-10-12T12:07:39.288Z,12.30
2022-10-12T12:10:26.094Z,11.68
2022-10-12T12:13:23.089Z,14.02
2022-10-12T12:15:53.644Z,9.30
2022-10-12T12:21:00.872Z,9.82
2022-10-12T12:23:40.792Z,7.68
2022-10-12T12:26:16.169Z,10.52
2022-10-12T12:28:49.700Z,7.78
2022-10-12T12:31:23.285Z,14.13
2022-10-12T12:34:21.326Z,49.63
2022-10-12T12:36:51.801Z,19.60
2022-10-12T12:39:26.622Z,16.23
2022-10-12T12:42:05.382Z,14.95
2022-10-12T12:45:20.407Z,13.30
2022-10-12T12:47:48.698Z,12.80
2022-10-12T12:50:35.689Z,11.95
2022-10-12T12:53:21.284Z,16.05
2022-10-12T12:55:58.283Z,20.88
2022-10-12T12:58:49.768Z,18.02
2022-10-12T13:01:34.921Z,14.52
2022-10-12T13:04:27.983Z,16.00
2022-10-12T13:07:01.999Z,16.92
2022-10-12T13:09:53.210Z,19.33
2022-10-12T13:12:55.637Z,18.95
2022-10-12T13:15:36.343Z,15.10
2022-10-12T13:20:34.769Z,10.70
2022-10-12T13:23:12.008Z,10.90
2022-10-12T13:25:47.376Z,8.23
2022-10-12T13:28:35.130Z,12.82
2022-10-12T13:31:14.278Z,14.38
2022-10-12T13:33:50.766Z,11.88
2022-10-12T13:36:26.323Z,11.52
2022-10-12T13:39:10.475Z,18.33
2022-10-12T13:41:38.665Z,18.80
2022-10-12T13:44:07.531Z,15.13
2022-10-12T13:46:43.656Z,14.63
2022-10-12T13:49:30.114Z,20.92
2022-10-12T13:52:00.879Z,18.00
2022-10-12T13:54:34.842Z,26.70
2022-10-12T13:57:19.466Z,28.20
2022-10-12T13:59:50.301Z,25.13
2022-10-12T14:02:30.156Z,21.20
2022-10-12T14:05:00.481Z,21.35
2022-10-12T14:07:41.964Z,28.65
2022-10-12T14:10:16.820Z,49.20
2022-10-12T14:12:51.085Z,89.85
2022-10-12T14:15:20.253Z,92.95
2022-10-12T14:17:53.087Z,107.10
2022-10-12T14:20:31.168Z,101.82
2022-10-12T14:23:01.515Z,42.30
2022-10-12T14:25:33.331Z,46.53
2022-10-12T14:28:04.681Z,39.30
2022-10-12T14:30:36.883Z,42.72
2022-10-12T14:33:16.846Z,37.97
2022-10-12T14:35:49.506Z,33.70
2022-10-12T14:38:42.113Z,33.08
2022-10-12T14:41:28.568Z,55.65
2022-10-12T14:44:16.494Z,50.35
2022-10-12T14:46:52.938Z,32.67
2022-10-12T14:49:35.622Z,36.17
2022-10-12T14:52:03.617Z,27.88
2022-10-12T14:54:31.900Z,26.80
2022-10-12T14:57:13.840Z,31.63
2022-10-12T14:59:42.366Z,31.90
2022-10-12T15:02:22.479Z,28.80
2022-10-12T15:04:51.444Z,31.80
2022-10-12T15:07:25.213Z,29.70
2022-10-12T15:09:53.753Z,25.98
2022-10-12T15:12:23.307Z,24.73
2022-10-12T15:14:54.172Z,28.05
2022-10-12T15:17:21.911Z,32.05
2022-10-12T15:19:51.658Z,57.90
2022-10-12T15:22:25.426Z,61.80
2022-10-12T15:24:54.806Z,54.47
2022-10-12T15:27:22.605Z,48.67
2022-10-12T15:29:50.834Z,59.78
2022-10-12T15:32:19.491Z,70.65
2022-10-12T15:34:47.689Z,74.35
2022-10-12T15:37:15.579Z,72.00
2022-10-12T15:39:43.573Z,76.82
2022-10-12T15:42:15.490Z,78.38
2022-10-12T15:44:43.254Z,72.63
2022-10-12T15:47:11.777Z,69.72
2022-10-12T15:49:39.770Z,55.00
2022-10-12T15:52:11.671Z,46.25
2022-10-12T15:54:39.526Z,37.60
2022-10-12T15:57:08.338Z,43.28
2022-10-12T15:59:36.372Z,40.25
2022-10-12T16:02:04.489Z,53.20
2022-10-12T16:04:32.227Z,56.53
2022-10-12T16:07:02.248Z,64.20
2022-10-12T16:09:29.951Z,140.73
2022-10-12T16:11:58.019Z,96.53
2022-10-12T16:14:25.729Z,132.23
2022-10-12T16:16:53.803Z,161.65
2022-10-12T16:19:21.677Z,125.43
2022-10-12T16:21:49.417Z,129.45
2022-10-12T16:24:18.140Z,82.97
2022-10-12T16:26:47.544Z,87.00
2022-10-12T16:29:16.018Z,123.70
2022-10-12T16:31:43.713Z,115.85
2022-10-12T16:34:11.752Z,96.78
2022-10-12T16:36:39.587Z,73.15
2022-10-12T16:39:07.634Z,67.90
2022-10-12T16:41:35.376Z,58.95
2022-10-12T16:44:04.852Z,76.00
2022-10-12T16:46:32.599Z,89.05
2022-10-12T16:49:00.661Z,88.13
2022-10-12T16:51:28.381Z,84.03
2022-10-12T16:53:57.271Z,74.82
2022-10-12T16:56:24.962Z,74.75
2022-10-12T16:58:53.072Z,112.57
2022-10-12T17:01:20.838Z,144.00
2022-10-12T17:03:48.911Z,140.70
2022-10-12T17:06:16.739Z,156.40
2022-10-12T17:08:44.796Z,164.48
2022-10-12T17:11:16.592Z,140.52
2022-10-12T17:13:48.960Z,122.60
2022-10-12T17:16:37.309Z,104.47
2022-10-12T17:19:05.737Z,99.00
2022-10-12T17:21:33.864Z,86.80
2022-10-12T17:24:02.942Z,92.63
2022-10-12T17:26:31.033Z,116.63
2022-10-12T17:28:59.191Z,111.47
2022-10-12T17:31:27.015Z,121.28
2022-10-12T17:33:55.605Z,132.75
2022-10-12T17:36:28.095Z,151.25
2022-10-12T17:39:00.065Z,170.90
2022-10-12T17:41:29.065Z,175.50
2022-10-12T17:43:58.251Z,110.43
2022-10-12T17:46:26.450Z,119.78
2022-10-12T17:48:56.302Z,110.45
2022-10-12T17:51:24.517Z,95.75
2022-10-12T17:53:52.768Z,118.55
2022-10-12T17:56:21.326Z,107.78
2022-10-12T17:58:57.588Z,108.80
2022-10-12T18:01:30.913Z,81.53
2022-10-12T18:04:03.432Z,107.45
2022-10-12T18:06:33.212Z,107.82
2022-10-12T18:09:04.050Z,101.43
2022-10-12T18:11:32.858Z,123.30
2022-10-12T18:14:03.681Z,159.65
2022-10-12T18:16:33.476Z,138.80
2022-10-12T18:19:07.153Z,149.60
2022-10-12T18:21:35.340Z,151.50
2022-10-12T18:24:06.938Z,161.90
2022-10-12T18:26:35.253Z,189.27
2022-10-12T18:29:05.358Z,185.27
2022-10-12T18:31:33.566Z,190.23
2022-10-12T18:34:03.295Z,163.13
2022-10-12T18:36:31.342Z,173.10
2022-10-12T18:39:02.001Z,173.02
2022-10-12T18:43:59.836Z,166.35
2022-10-12T18:46:29.648Z,196.93
2022-10-12T18:48:58.864Z,219.75
2022-10-12T18:51:31.583Z,229.23
2022-10-12T18:54:01.204Z,244.30
2022-10-12T18:56:30.458Z,249.20
2022-10-12T18:59:00.157Z,234.30
2022-10-12T19:01:30.460Z,229.43
2022-10-12T19:04:01.866Z,201.00
2022-10-12T19:06:32.780Z,195.00
2022-10-12T19:09:02.229Z,211.88
2022-10-12T19:11:34.782Z,227.05
2022-10-12T19:14:07.722Z,231.80
2022-10-12T19:16:36.559Z,224.43
2022-10-12T19:19:13.980Z,195.68
2022-10-12T19:21:45.394Z,183.90
2022-10-12T19:24:17.614Z,188.48
2022-10-12T19:26:45.798Z,192.30
2022-10-12T19:29:14.215Z,122.68
2022-10-12T19:31:47.286Z,113.38
2022-10-12T19:34:18.346Z,91.78
2022-10-12T19:36:46.789Z,70.00
2022-10-12T19:39:20.532Z,54.63
2022-10-12T19:41:49.846Z,58.47
2022-10-12T19:44:19.345Z,59.20
2022-10-12T19:46:49.137Z,63.42
2022-10-12T19:49:20.881Z,60.60
2022-10-12T19:51:49.059Z,61.92
2022-10-12T19:54:16.859Z,90.47
2022-10-12T19:56:46.666Z,127.18
2022-10-12T19:59:14.502Z,159.85
2022-10-12T20:01:47.994Z,287.20
2022-10-12T20:04:16.424Z,343.45
2022-10-12T20:06:44.637Z,216.27
2022-10-12T20:09:12.600Z,155.68
2022-10-12T20:11:40.982Z,112.80
2022-10-12T20:14:09.216Z,101.03
2022-10-12T20:16:37.739Z,219.40
2022-10-12T20:19:08.313Z,225.32
2022-10-12T20:21:36.942Z,186.57
2022-10-12T20:24:05.219Z,142.25
2022-10-12T20:26:33.388Z,99.07
2022-10-12T20:29:01.684Z,111.05
2022-10-12T20:31:29.961Z,102.13
2022-10-12T20:33:58.511Z,90.07
2022-10-12T20:36:29.230Z,87.43
2022-10-12T20:41:26.014Z,94.45
2022-10-12T20:43:59.146Z,107.07
2022-10-12T20:46:30.701Z,92.65
2022-10-12T20:49:01.135Z,97.03
2022-10-12T20:51:32.274Z,96.10
2022-10-12T20:54:01.672Z,329.42
2022-10-12T20:56:32.354Z,154.45
2022-10-12T20:59:01.462Z,124.35
2022-10-12T21:01:29.828Z,128.63
2022-10-12T21:03:57.941Z,95.55
2022-10-12T21:06:26.167Z,96.70
2022-10-12T21:08:56.544Z,96.55
2022-10-12T21:11:25.551Z,98.20
2022-10-12T21:13:54.768Z,90.65
2022-10-12T21:16:23.385Z,64.63
2022-10-12T21:18:54.922Z,63.90
2022-10-12T21:21:24.398Z,61.92
2022-10-12T21:23:57.817Z,60.25
2022-10-12T21:26:30.771Z,63.22
2022-10-12T21:28:59.993Z,75.00
2022-10-12T21:31:32.346Z,84.85
2022-10-12T21:34:02.763Z,99.45
2022-10-12T21:36:32.078Z,101.28
2022-10-12T21:38:59.971Z,119.38
2022-10-12T21:41:29.991Z,136.38
2022-10-12T21:43:58.019Z,160.18
2022-10-12T21:46:31.503Z,160.02
2022-10-12T21:49:01.510Z,150.05
2022-10-12T21:51:31.647Z,140.45
2022-10-12T21:53:59.810Z,94.33
2022-10-12T21:56:30.345Z,114.40
2022-10-12T21:59:00.279Z,125.47
2022-10-12T22:01:35.453Z,127.68
2022-10-12T22:04:06.432Z,143.77
2022-10-12T22:06:35.126Z,131.48
2022-10-12T22:09:06.952Z,121.18
2022-10-12T22:11:36.896Z,113.13
2022-10-12T22:14:12.293Z,122.72
2022-10-12T22:16:41.213Z,128.93
2022-10-12T22:19:11.157Z,111.32
2022-10-12T22:21:38.945Z,114.07
2022-10-12T22:24:07.307Z,124.78
2022-10-12T22:26:35.542Z,141.57
2022-10-12T22:29:06.402Z,130.65
2022-10-12T22:31:35.071Z,125.03
2022-10-12T22:34:03.205Z,125.85
2022-10-12T22:36:34.174Z,132.25
2022-10-12T22:39:04.569Z,182.48
2022-10-12T22:41:32.431Z,171.88
2022-10-12T22:44:00.135Z,145.05
2022-10-12T22:46:28.263Z,130.55
2022-10-12T22:48:56.023Z,129.05
2022-10-12T22:51:35.875Z,124.43
2022-10-12T22:54:04.350Z,105.93
2022-10-12T22:56:32.775Z,111.78
2022-10-12T22:59:03.415Z,108.07
2022-10-12T23:01:31.458Z,95.72
2022-10-12T23:03:59.285Z,100.97
2022-10-12T23:06:27.032Z,97.65
2022-10-12T23:08:55.615Z,105.03
2022-10-12T23:11:26.428Z,131.73
2022-10-12T23:13:55.009Z,149.10
2022-10-12T23:16:29.577Z,146.63
2022-10-12T23:18:59.911Z,121.82
2022-10-12T23:21:29.861Z,122.57
2022-10-12T23:23:59.607Z,127.97
2022-10-12T23:26:28.739Z,126.63
2022-10-12T23:28:57.051Z,125.10
2022-10-12T23:31:27.584Z,125.10
2022-10-12T23:36:35.167Z,128.07
2022-10-12T23:39:04.830Z,127.55
2022-10-12T23:41:32.997Z,122.57
2022-10-12T23:44:01.321Z,127.25
2022-10-12T23:46:29.217Z,116.95
2022-10-12T23:48:58.574Z,121.43
2022-10-12T23:51:26.615Z,125.50
2022-10-12T23:53:54.316Z,112.63
2022-10-12T23:56:22.056Z,119.72
2022-10-12T23:58:50.315Z,110.57
